createdAt,value
2018-08-23T00:01:37.593Z,101320.42
2018-08-23T00:04:10.894Z,101314.64
2018-08-23T00:06:48.824Z,101312.52
2018-08-23T00:09:18.591Z,101320.58
2018-08-23T00:11:48.450Z,101312.58
2018-08-23T00:14:18.611Z,101316.84
2018-08-23T00:16:48.826Z,101312.38
2018-08-23T00:19:18.822Z,101312.72
2018-08-23T00:21:49.854Z,101310.00
2018-08-23T00:24:20.717Z,101297.27
2018-08-23T00:26:56.157Z,101290.96
2018-08-23T00:29:26.936Z,101301.06
2018-08-23T00:32:02.076Z,101293.98
2018-08-23T00:34:33.123Z,101301.25
2018-08-23T00:37:04.875Z,101293.02
2018-08-23T00:39:34.934Z,101292.52
2018-08-23T00:42:10.116Z,101292.77
2018-08-23T00:44:59.516Z,101286.38
2018-08-23T00:47:31.043Z,101282.80
2018-08-23T00:50:01.621Z,101284.37
2018-08-23T00:52:47.242Z,101282.91
2018-08-23T00:55:29.627Z,101281.00
2018-08-23T00:57:59.821Z,101288.23
2018-08-23T01:00:30.084Z,101276.12
2018-08-23T01:03:04.292Z,101278.25
2018-08-23T01:05:35.332Z,101279.50
2018-08-23T01:08:07.515Z,101277.34
2018-08-23T01:10:40.295Z,101267.95
2018-08-23T01:13:10.268Z,101268.51
2018-08-23T01:15:41.242Z,101270.77
2018-08-23T01:18:14.640Z,101259.27
2018-08-23T01:20:45.532Z,101263.92
2018-08-23T01:23:15.716Z,101264.23
2018-08-23T01:25:47.089Z,101260.76
2018-08-23T01:28:16.966Z,101267.30
2018-08-23T01:30:47.737Z,101262.78
2018-08-23T01:33:19.818Z,101261.31
2018-08-23T01:35:51.100Z,101265.62
2018-08-23T01:38:21.086Z,101256.14
2018-08-23T01:40:58.648Z,101253.87
2018-08-23T01:43:28.707Z,101247.80
2018-08-23T01:45:59.076Z,101246.40
2018-08-23T01:48:28.966Z,101244.44
2018-08-23T01:50:59.063Z,101241.52
2018-08-23T01:53:33.261Z,101243.00
2018-08-23T01:56:03.211Z,101238.59
2018-08-23T01:58:34.168Z,101235.12
2018-08-23T02:01:15.232Z,101231.72
2018-08-23T02:03:45.529Z,101230.73
2018-08-23T02:06:15.568Z,101226.23
2018-08-23T02:08:46.876Z,101228.27
2018-08-23T02:11:16.784Z,101226.48
2018-08-23T02:13:49.806Z,101226.48
2018-08-23T02:16:19.734Z,101223.79
2018-08-23T02:18:49.634Z,101223.34
2018-08-23T02:21:19.518Z,101229.97
2018-08-23T02:23:53.441Z,101221.86
2018-08-23T02:26:23.276Z,101221.96
2018-08-23T02:28:53.365Z,101223.44
2018-08-23T02:31:23.513Z,101214.31
2018-08-23T02:33:53.701Z,101212.51
2018-08-23T02:36:25.205Z,101208.88
2018-08-23T02:39:04.987Z,101202.78
2018-08-23T02:41:34.886Z,101200.64
2018-08-23T02:44:04.751Z,101201.43
2018-08-23T02:46:35.089Z,101199.71
2018-08-23T02:49:04.910Z,101196.34
2018-08-23T02:51:42.330Z,101197.69
2018-08-23T02:54:13.395Z,101187.32
2018-08-23T02:56:47.150Z,101192.30
2018-08-23T02:59:17.079Z,101188.77
2018-08-23T03:01:48.279Z,101192.06
2018-08-23T03:04:22.349Z,101194.66
2018-08-23T03:07:00.650Z,101190.38
2018-08-23T03:09:32.463Z,101182.47
2018-08-23T03:12:06.721Z,101182.01
2018-08-23T03:14:37.476Z,101189.00
2018-08-23T03:17:28.569Z,101178.06
2018-08-23T03:20:08.487Z,101175.12
2018-08-23T03:22:38.936Z,101172.97
2018-08-23T03:25:11.057Z,101170.49
2018-08-23T03:27:41.047Z,101165.73
2018-08-23T03:30:13.946Z,101174.02
2018-08-23T03:32:44.064Z,101173.02
2018-08-23T03:35:14.401Z,101170.13
2018-08-23T03:37:44.726Z,101166.92
2018-08-23T03:40:15.979Z,101170.27
2018-08-23T03:42:46.096Z,101168.83
2018-08-23T03:45:21.196Z,101164.19
2018-08-23T03:47:54.741Z,101161.83
2018-08-23T03:50:25.064Z,101167.56
2018-08-23T03:52:55.765Z,101161.95
2018-08-23T03:55:27.140Z,101167.48
2018-08-23T03:58:02.808Z,101166.59
2018-08-23T04:00:38.148Z,101160.78
2018-08-23T04:03:12.476Z,101167.78
2018-08-23T04:05:43.004Z,101161.58
2018-08-23T04:08:13.338Z,101167.33
2018-08-23T04:10:43.430Z,101167.69
2018-08-23T04:13:13.809Z,101171.28
2018-08-23T04:15:43.964Z,101173.22
2018-08-23T04:18:17.081Z,101166.55
2018-08-23T04:20:55.220Z,101164.56
2018-08-23T04:23:25.307Z,101161.83
2018-08-23T04:25:55.878Z,101167.87
2018-08-23T04:28:25.939Z,101157.84
2018-08-23T04:30:56.180Z,101165.75
2018-08-23T04:33:26.047Z,101158.99
2018-08-23T04:35:56.087Z,101159.88
2018-08-23T04:38:26.085Z,101153.42
2018-08-23T04:41:05.977Z,101155.66
2018-08-23T04:43:36.047Z,101149.37
2018-08-23T04:46:10.220Z,101143.41
2018-08-23T04:48:39.973Z,101141.30
2018-08-23T04:51:09.999Z,101139.82
2018-08-23T04:53:39.879Z,101139.36
2018-08-23T04:56:09.864Z,101142.69
2018-08-23T04:58:39.871Z,101137.66
2018-08-23T05:01:09.803Z,101133.41
2018-08-23T05:03:39.979Z,101142.81
2018-08-23T05:06:09.836Z,101135.98
2018-08-23T05:08:39.877Z,101135.89
2018-08-23T05:11:10.438Z,101143.20
2018-08-23T05:13:40.416Z,101134.58
2018-08-23T05:16:10.394Z,101145.70
2018-08-23T05:18:41.571Z,101137.50
2018-08-23T05:21:11.437Z,101141.61
2018-08-23T05:23:41.420Z,101144.34
2018-08-23T05:26:15.311Z,101147.52
2018-08-23T05:29:01.997Z,101150.01
2018-08-23T05:31:32.967Z,101145.95
2018-08-23T05:34:07.524Z,101145.27
2018-08-23T05:36:37.417Z,101144.02
2018-08-23T05:39:10.423Z,101141.59
2018-08-23T05:41:40.350Z,101130.12
2018-08-23T05:44:16.737Z,101135.20
2018-08-23T05:46:51.660Z,101134.91
2018-08-23T05:49:21.631Z,101137.72
2018-08-23T05:51:51.688Z,101137.91
2018-08-23T05:54:21.850Z,101135.37
2018-08-23T05:56:52.163Z,101135.95
2018-08-23T05:59:25.048Z,101129.98
2018-08-23T06:01:55.305Z,101125.01
2018-08-23T06:04:56.684Z,101123.69
2018-08-23T06:07:26.753Z,101126.43
2018-08-23T06:09:56.850Z,101120.44
2018-08-23T06:12:33.368Z,101127.76
2018-08-23T06:15:03.653Z,101126.52
2018-08-23T06:17:34.145Z,101127.54
2018-08-23T06:20:04.193Z,101130.69
2018-08-23T06:22:34.153Z,101129.06
2018-08-23T06:25:04.391Z,101131.59
2018-08-23T06:27:35.408Z,101137.81
2018-08-23T06:32:34.988Z,101134.11
2018-08-23T06:35:05.183Z,101139.63
2018-08-23T06:37:36.226Z,101136.55
2018-08-23T06:40:07.399Z,101137.63
2018-08-23T06:42:47.143Z,101135.12
2018-08-23T06:45:17.598Z,101135.99
2018-08-23T06:47:52.340Z,101137.16
2018-08-23T06:50:26.580Z,101129.88
2018-08-23T06:52:56.974Z,101127.00
2018-08-23T06:55:33.320Z,101123.20
2018-08-23T06:58:04.476Z,101128.82
2018-08-23T07:00:34.582Z,101125.89
2018-08-23T07:03:06.436Z,101116.89
2018-08-23T07:05:36.449Z,101119.53
2018-08-23T07:08:07.240Z,101116.83
2018-08-23T07:10:37.783Z,101112.50
2018-08-23T07:13:08.112Z,101113.59
2018-08-23T07:15:38.483Z,101106.91
2018-08-23T07:18:13.235Z,101108.47
2018-08-23T07:20:43.430Z,101102.73
2018-08-23T07:23:30.960Z,101102.50
2018-08-23T07:26:01.130Z,101102.81
2018-08-23T07:28:31.456Z,101101.92
2018-08-23T07:31:01.980Z,101104.77
2018-08-23T07:33:35.019Z,101097.91
2018-08-23T07:36:21.672Z,101107.56
2018-08-23T07:38:51.850Z,101106.31
2018-08-23T07:41:22.140Z,101101.55
2018-08-23T07:43:52.448Z,101099.48
2018-08-23T07:46:22.579Z,101105.02
2018-08-23T07:48:52.679Z,101095.08
2018-08-23T07:51:26.211Z,101102.69
2018-08-23T07:53:58.800Z,101104.20
2018-08-23T07:56:29.189Z,101108.03
2018-08-23T07:58:59.156Z,101104.96
2018-08-23T08:01:31.873Z,101107.88
2018-08-23T08:04:02.370Z,101114.98
2018-08-23T08:06:32.365Z,101114.67
2018-08-23T08:09:02.704Z,101116.55
2018-08-23T08:11:51.603Z,101110.35
2018-08-23T08:14:26.508Z,101111.63
2018-08-23T08:17:04.908Z,101110.31
2018-08-23T08:19:41.071Z,101112.33
2018-08-23T08:22:11.660Z,101109.42
2018-08-23T08:24:41.649Z,101110.48
2018-08-23T08:27:11.648Z,101107.19
2018-08-23T08:29:43.196Z,101109.46
2018-08-23T08:32:13.756Z,101109.30
2018-08-23T08:34:44.897Z,101103.92
2018-08-23T08:37:15.200Z,101103.12
2018-08-23T08:39:45.323Z,101109.19
2018-08-23T08:42:15.777Z,101103.66
2018-08-23T08:44:46.014Z,101108.39
2018-08-23T08:47:16.385Z,101095.82
2018-08-23T08:49:46.578Z,101095.38
2018-08-23T08:52:16.623Z,101097.34
2018-08-23T08:54:46.555Z,101098.59
2018-08-23T08:57:16.740Z,101089.48
2018-08-23T08:59:46.917Z,101090.19
2018-08-23T09:02:17.736Z,101084.09
2018-08-23T09:04:48.212Z,101081.59
2018-08-23T09:07:18.932Z,101079.27
2018-08-23T09:09:49.215Z,101079.62
2018-08-23T09:12:19.327Z,101078.81
2018-08-23T09:14:49.444Z,101067.02
2018-08-23T09:17:39.321Z,101072.58
2018-08-23T09:20:13.441Z,101068.86
2018-08-23T09:22:57.861Z,101064.48
2018-08-23T09:25:44.071Z,101066.11
2018-08-23T09:28:14.005Z,101058.73
2018-08-23T09:30:44.839Z,101062.30
2018-08-23T09:33:20.064Z,101063.32
2018-08-23T09:35:49.981Z,101052.41
2018-08-23T09:38:19.999Z,101066.37
2018-08-23T09:40:50.321Z,101057.86
2018-08-23T09:43:20.167Z,101049.30
2018-08-23T09:45:50.492Z,101053.02
2018-08-23T09:48:20.845Z,101047.93
2018-08-23T09:50:50.863Z,101044.23
2018-08-23T09:53:25.550Z,101044.22
2018-08-23T09:55:56.732Z,101042.45
2018-08-23T09:58:31.956Z,101041.70
2018-08-23T10:01:07.085Z,101041.09
2018-08-23T10:03:42.306Z,101040.50
2018-08-23T10:06:17.176Z,101039.10
2018-08-23T10:08:54.655Z,101037.34
2018-08-23T10:11:29.987Z,101039.70
2018-08-23T10:14:05.146Z,101040.86
2018-08-23T10:16:40.079Z,101026.98
2018-08-23T10:19:15.052Z,101028.77
2018-08-23T10:21:50.157Z,101032.12
2018-08-23T10:24:25.759Z,101032.29
2018-08-23T10:26:56.404Z,101025.03
2018-08-23T10:29:26.397Z,101027.28
2018-08-23T10:31:56.296Z,101023.73
2018-08-23T10:34:26.290Z,101024.34
2018-08-23T10:36:56.521Z,101025.91
2018-08-23T10:39:26.871Z,101023.53
2018-08-23T10:41:56.763Z,101019.80
2018-08-23T10:44:26.822Z,101021.79
2018-08-23T10:46:57.913Z,101020.82
2018-08-23T10:49:27.779Z,101023.29
2018-08-23T10:51:57.798Z,101025.07
2018-08-23T10:54:27.950Z,101021.58
2018-08-23T10:56:57.878Z,101015.31
2018-08-23T10:59:29.313Z,101017.25
2018-08-23T11:01:59.293Z,101022.77
2018-08-23T11:04:29.492Z,101018.80
2018-08-23T11:06:59.739Z,101018.02
2018-08-23T11:09:34.957Z,101022.71
2018-08-23T11:12:04.845Z,101013.69
2018-08-23T11:14:40.607Z,101015.03
2018-08-23T11:17:15.860Z,101021.53
2018-08-23T11:19:50.980Z,101008.64
2018-08-23T11:22:24.307Z,101018.80
2018-08-23T11:24:54.307Z,101014.52
2018-08-23T11:27:24.227Z,101014.30
2018-08-23T11:29:54.346Z,101012.97
2018-08-23T11:32:24.202Z,101012.75
2018-08-23T11:34:54.203Z,101009.83
2018-08-23T11:37:24.094Z,101012.38
2018-08-23T11:39:54.160Z,101014.71
2018-08-23T11:42:24.463Z,101006.52
2018-08-23T11:44:54.507Z,100999.05
2018-08-23T11:47:24.687Z,101004.89
2018-08-23T11:49:54.678Z,100997.28
2018-08-23T11:52:24.708Z,100998.23
2018-08-23T11:54:54.571Z,100996.69
2018-08-23T11:57:25.764Z,101004.32
2018-08-23T11:59:55.936Z,101000.93
2018-08-23T12:02:25.935Z,101006.58
2018-08-23T12:04:56.418Z,101000.78
2018-08-23T12:07:26.477Z,101004.89
2018-08-23T12:09:56.490Z,101003.84
2018-08-23T12:12:26.408Z,101001.30
2018-08-23T12:14:56.584Z,100995.27
2018-08-23T12:17:26.471Z,100999.42
2018-08-23T12:19:56.661Z,100993.71
2018-08-23T12:22:31.712Z,100997.47
2018-08-23T12:25:01.648Z,100993.00
2018-08-23T12:27:31.928Z,101001.96
2018-08-23T12:30:05.920Z,100996.12
2018-08-23T12:32:35.891Z,100996.09
2018-08-23T12:35:06.275Z,100988.47
2018-08-23T12:37:42.215Z,100998.20
2018-08-23T12:40:17.259Z,100992.72
2018-08-23T12:42:49.551Z,100990.27
2018-08-23T12:45:19.480Z,100991.35
2018-08-23T12:47:49.316Z,100987.25
2018-08-23T12:50:19.300Z,100980.67
2018-08-23T12:52:49.221Z,100985.00
2018-08-23T12:55:19.105Z,100980.28
2018-08-23T12:57:49.075Z,100981.06
2018-08-23T13:00:19.198Z,100982.25
2018-08-23T13:02:49.620Z,100974.04
2018-08-23T13:05:19.436Z,100966.80
2018-08-23T13:07:49.321Z,100957.25
2018-08-23T13:10:19.322Z,100957.39
2018-08-23T13:12:49.305Z,100962.70
2018-08-23T13:15:19.158Z,100951.88
2018-08-23T13:17:49.187Z,100949.08
2018-08-23T13:20:19.133Z,100948.13
2018-08-23T13:22:48.985Z,100949.22
2018-08-23T13:25:18.987Z,100954.64
2018-08-23T13:27:48.930Z,100943.68
2018-08-23T13:30:18.913Z,100944.00
2018-08-23T13:32:48.932Z,100946.30
2018-08-23T13:35:19.140Z,100943.32
2018-08-23T13:37:49.056Z,100935.30
2018-08-23T13:40:19.953Z,100935.06
2018-08-23T13:42:50.549Z,100924.30
2018-08-23T13:45:20.414Z,100932.29
2018-08-23T13:47:50.331Z,100926.49
2018-08-23T13:50:20.188Z,100929.88
2018-08-23T13:52:50.124Z,100925.34
2018-08-23T13:55:20.029Z,100917.55
2018-08-23T13:57:50.154Z,100919.64
2018-08-23T14:00:25.187Z,100911.45
2018-08-23T14:02:55.054Z,100909.23
2018-08-23T14:05:24.948Z,100903.36
2018-08-23T14:07:55.106Z,100907.86
2018-08-23T14:10:25.189Z,100909.81
2018-08-23T14:12:55.252Z,100900.99
2018-08-23T14:15:30.513Z,100894.41
2018-08-23T14:18:00.425Z,100895.73
2018-08-23T14:20:30.316Z,100896.12
2018-08-23T14:23:00.174Z,100905.43
2018-08-23T14:25:30.176Z,100895.95
2018-08-23T14:28:00.182Z,100885.41
2018-08-23T14:30:30.093Z,100895.00
2018-08-23T14:33:01.400Z,100890.14
2018-08-23T14:35:31.435Z,100892.44
2018-08-23T14:38:01.294Z,100889.48
2018-08-23T14:40:31.218Z,100882.50
2018-08-23T14:43:01.017Z,100874.92
2018-08-23T14:45:32.453Z,100874.30
2018-08-23T14:48:07.434Z,100877.83
2018-08-23T14:50:37.674Z,100874.16
2018-08-23T14:53:07.996Z,100871.66
2018-08-23T14:55:43.076Z,100867.30
2018-08-23T14:58:12.892Z,100868.53
2018-08-23T15:00:43.140Z,100868.43
2018-08-23T15:03:13.107Z,100864.69
2018-08-23T15:05:42.946Z,100862.16
2018-08-23T15:08:12.909Z,100868.84
2018-08-23T15:10:42.945Z,100872.06
2018-08-23T15:13:12.955Z,100862.52
2018-08-23T15:15:51.739Z,100870.52
2018-08-23T15:18:22.703Z,100860.20
2018-08-23T15:20:53.202Z,100864.15
2018-08-23T15:23:23.164Z,100863.19
2018-08-23T15:25:54.180Z,100849.17
2018-08-23T15:28:24.056Z,100853.89
2018-08-23T15:30:54.149Z,100852.92
2018-08-23T15:33:24.555Z,100856.19
2018-08-23T15:35:54.721Z,100847.99
2018-08-23T15:38:25.032Z,100844.86
2018-08-23T15:40:55.165Z,100850.71
2018-08-23T15:43:25.038Z,100849.34
2018-08-23T15:45:55.217Z,100852.47
2018-08-23T15:48:25.123Z,100850.11
2018-08-23T15:50:54.980Z,100861.02
2018-08-23T15:53:24.979Z,100856.63
2018-08-23T15:55:54.923Z,100858.16
2018-08-23T15:58:24.987Z,100862.12
2018-08-23T16:00:54.919Z,100858.77
2018-08-23T16:03:24.993Z,100855.05
2018-08-23T16:05:54.862Z,100855.39
2018-08-23T16:08:24.966Z,100852.07
2018-08-23T16:10:55.416Z,100845.03
2018-08-23T16:13:25.516Z,100849.68
2018-08-23T16:16:00.403Z,100850.45
2018-08-23T16:19:34.205Z,100856.96
2018-08-23T16:22:04.325Z,100852.66
2018-08-23T16:24:34.138Z,100847.88
2018-08-23T16:27:05.132Z,100845.94
2018-08-23T16:29:34.969Z,100839.72
2018-08-23T16:32:05.083Z,100844.79
2018-08-23T16:34:34.935Z,100834.27
2018-08-23T16:37:05.161Z,100833.70
2018-08-23T16:39:35.072Z,100837.45
2018-08-23T16:42:05.146Z,100831.77
2018-08-23T16:44:35.110Z,100834.13
2018-08-23T16:47:05.246Z,100831.78
2018-08-23T16:49:35.332Z,100830.59
2018-08-23T16:52:05.815Z,100829.59
2018-08-23T16:54:36.055Z,100830.14
2018-08-23T16:57:06.327Z,100826.18
2018-08-23T16:59:36.382Z,100831.15
2018-08-23T17:02:06.406Z,100830.11
2018-08-23T17:04:43.507Z,100821.00
2018-08-23T17:07:15.447Z,100811.05
2018-08-23T17:09:47.042Z,100802.69
2018-08-23T17:12:17.140Z,100810.11
2018-08-23T17:14:47.176Z,100814.16
2018-08-23T17:17:22.438Z,100813.94
2018-08-23T17:19:53.793Z,100815.70
2018-08-23T17:22:26.276Z,100813.47
2018-08-23T17:24:56.683Z,100811.33
2018-08-23T17:27:28.265Z,100815.23
2018-08-23T17:29:59.143Z,100809.87
2018-08-23T17:32:29.172Z,100814.95
2018-08-23T17:34:59.088Z,100811.21
2018-08-23T17:37:28.903Z,100810.20
2018-08-23T17:39:58.901Z,100803.98
2018-08-23T17:42:33.678Z,100813.94
2018-08-23T17:45:03.778Z,100815.98
2018-08-23T17:47:33.604Z,100812.39
2018-08-23T17:50:03.696Z,100810.39
2018-08-23T17:52:33.517Z,100814.41
2018-08-23T17:55:03.366Z,100821.17
2018-08-23T17:57:33.367Z,100821.94
2018-08-23T18:00:03.414Z,100820.34
2018-08-23T18:02:33.435Z,100823.86
2018-08-23T18:05:03.709Z,100833.27
2018-08-23T18:07:33.924Z,100834.16
2018-08-23T18:10:03.979Z,100827.08
2018-08-23T18:12:33.964Z,100826.66
2018-08-23T18:15:04.200Z,100823.66
2018-08-23T18:17:34.508Z,100827.13
2018-08-23T18:20:04.764Z,100832.44
2018-08-23T18:22:35.213Z,100825.02
2018-08-23T18:25:05.407Z,100822.86
2018-08-23T18:27:35.442Z,100827.73
2018-08-23T18:30:06.115Z,100825.02
2018-08-23T18:32:36.711Z,100825.87
2018-08-23T18:35:07.060Z,100824.13
2018-08-23T18:37:37.239Z,100829.69
2018-08-23T18:40:07.256Z,100828.62
2018-08-23T18:42:37.389Z,100828.83
2018-08-23T18:45:07.512Z,100830.98
2018-08-23T18:47:37.522Z,100835.72
2018-08-23T18:50:07.888Z,100838.86
2018-08-23T18:52:38.439Z,100840.34
2018-08-23T18:55:08.731Z,100840.11
2018-08-23T18:57:38.621Z,100840.53
2018-08-23T19:00:08.744Z,100836.35
2018-08-23T19:02:38.712Z,100841.17
2018-08-23T19:05:10.875Z,100831.23
2018-08-23T19:07:41.861Z,100831.83
2018-08-23T19:10:12.917Z,100832.71
2018-08-23T19:12:43.323Z,100833.81
2018-08-23T19:15:13.314Z,100831.24
2018-08-23T19:17:44.420Z,100828.47
2018-08-23T19:20:14.473Z,100830.20
2018-08-23T19:22:44.523Z,100833.42
2018-08-23T19:25:14.935Z,100833.80
2018-08-23T19:27:44.885Z,100831.87
2018-08-23T19:30:15.198Z,100825.87
2018-08-23T19:32:45.206Z,100824.66
2018-08-23T19:35:15.287Z,100828.10
2018-08-23T19:37:45.419Z,100828.98
2018-08-23T19:40:15.471Z,100832.49
2018-08-23T19:42:46.094Z,100826.20
2018-08-23T19:45:16.373Z,100825.58
2018-08-23T19:47:51.435Z,100823.99
2018-08-23T19:50:21.565Z,100824.70
2018-08-23T19:52:52.578Z,100826.36
2018-08-23T19:55:22.695Z,100817.70
2018-08-23T19:57:53.261Z,100820.98
2018-08-23T20:00:23.632Z,100818.44
2018-08-23T20:02:53.513Z,100816.78
2018-08-23T20:05:23.879Z,100811.22
2018-08-23T20:07:54.224Z,100815.80
2018-08-23T20:10:24.352Z,100815.34
2018-08-23T20:12:54.303Z,100811.84
2018-08-23T20:15:26.203Z,100815.69
2018-08-23T20:17:57.394Z,100816.22
2018-08-23T20:20:27.243Z,100810.16
2018-08-23T20:22:57.609Z,100810.46
2018-08-23T20:25:27.544Z,100813.52
2018-08-23T20:27:57.546Z,100810.46
2018-08-23T20:30:27.616Z,100812.52
2018-08-23T20:32:58.034Z,100807.38
2018-08-23T20:35:27.924Z,100813.31
2018-08-23T20:37:58.056Z,100815.97
2018-08-23T20:40:28.405Z,100820.10
2018-08-23T20:42:58.548Z,100816.16
2018-08-23T20:45:28.522Z,100817.82
2018-08-23T20:47:59.345Z,100819.05
2018-08-23T20:50:29.579Z,100814.48
2018-08-23T20:52:59.749Z,100821.06
2018-08-23T20:55:30.115Z,100826.33
2018-08-23T20:58:00.333Z,100818.48
2018-08-23T21:00:30.309Z,100813.88
2018-08-23T21:03:00.650Z,100806.39
2018-08-23T21:05:32.788Z,100808.22
2018-08-23T21:08:02.916Z,100813.55
2018-08-23T21:10:32.900Z,100811.03
2018-08-23T21:13:02.838Z,100810.27
2018-08-23T21:15:37.089Z,100818.25
2018-08-23T21:18:10.180Z,100818.55
2018-08-23T21:20:40.998Z,100815.07
2018-08-23T21:23:10.949Z,100814.41
2018-08-23T21:25:40.913Z,100812.76
2018-08-23T21:28:11.062Z,100811.77
2018-08-23T21:30:41.072Z,100816.50
2018-08-23T21:33:11.272Z,100810.80
2018-08-23T21:35:41.379Z,100811.23
2018-08-23T21:38:11.622Z,100813.22
2018-08-23T21:40:41.597Z,100804.45
2018-08-23T21:43:11.540Z,100804.84
2018-08-23T21:45:41.636Z,100812.30
2018-08-23T21:48:11.583Z,100814.48
2018-08-23T21:50:41.684Z,100806.96
2018-08-23T21:53:12.000Z,100804.31
2018-08-23T21:55:42.132Z,100801.59
2018-08-23T21:58:12.581Z,100795.30
2018-08-23T22:00:47.746Z,100798.31
2018-08-23T22:03:17.543Z,100807.22
2018-08-23T22:05:47.620Z,100808.51
2018-08-23T22:08:17.572Z,100805.53
2018-08-23T22:10:47.537Z,100808.02
2018-08-23T22:13:17.506Z,100805.43
2018-08-23T22:15:48.578Z,100808.14
2018-08-23T22:18:19.688Z,100797.45
2018-08-23T22:20:49.603Z,100800.61
2018-08-23T22:23:19.588Z,100803.69
2018-08-23T22:25:49.818Z,100797.34
2018-08-23T22:28:20.095Z,100799.44
2018-08-23T22:30:50.164Z,100799.06
2018-08-23T22:33:20.037Z,100800.79
2018-08-23T22:35:49.968Z,100807.78
2018-08-23T22:38:19.883Z,100801.89
2018-08-23T22:40:50.025Z,100806.09
2018-08-23T22:43:20.090Z,100804.80
2018-08-23T22:45:50.069Z,100807.09
2018-08-23T22:48:20.226Z,100795.86
2018-08-23T22:50:50.150Z,100800.73
2018-08-23T22:53:20.189Z,100797.27
2018-08-23T22:55:50.197Z,100803.95
2018-08-23T22:58:20.154Z,100804.84
2018-08-23T23:00:50.005Z,100798.42
2018-08-23T23:03:24.962Z,100800.81
2018-08-23T23:05:54.824Z,100795.31
2018-08-23T23:08:24.752Z,100807.16
2018-08-23T23:10:54.709Z,100800.17
2018-08-23T23:13:24.610Z,100799.37
2018-08-23T23:15:54.694Z,100804.88
2018-08-23T23:18:24.947Z,100799.17
2018-08-23T23:20:54.793Z,100800.19
2018-08-23T23:23:24.730Z,100798.83
2018-08-23T23:25:54.843Z,100798.34
2018-08-23T23:28:24.618Z,100808.38
2018-08-23T23:30:54.607Z,100804.19
2018-08-23T23:33:24.696Z,100799.05
2018-08-23T23:35:54.807Z,100804.11
2018-08-23T23:38:24.591Z,100802.95
2018-08-23T23:40:54.446Z,100795.83
2018-08-23T23:43:24.288Z,100802.32
2018-08-23T23:45:54.241Z,100798.97
2018-08-23T23:48:24.072Z,100800.13
2018-08-23T23:50:53.982Z,100800.53
2018-08-23T23:53:24.140Z,100805.67
2018-08-23T23:55:53.983Z,100805.16
2018-08-23T23:58:23.865Z,100798.95
